createdAt,value
2019-04-25T00:00:49.013Z,9.38
2019-04-25T00:03:22.904Z,10.28
2019-04-25T00:05:52.602Z,9.13
2019-04-25T00:08:22.512Z,8.68
2019-04-25T00:10:52.066Z,8.30
2019-04-25T00:13:21.851Z,8.75
2019-04-25T00:15:51.894Z,7.92
2019-04-25T00:18:22.084Z,8.05
2019-04-25T00:21:01.449Z,7.60
2019-04-25T00:23:32.259Z,7.42
2019-04-25T00:26:11.214Z,7.53
2019-04-25T00:28:43.535Z,7.55
2019-04-25T00:31:13.519Z,8.20
2019-04-25T00:36:14.725Z,7.37
2019-04-25T00:38:46.433Z,7.62
2019-04-25T00:41:15.666Z,7.00
2019-04-25T00:43:46.278Z,7.30
2019-04-25T00:46:15.961Z,6.67
2019-04-25T00:48:45.795Z,6.85
2019-04-25T00:51:15.401Z,7.12
2019-04-25T00:53:44.983Z,6.70
2019-04-25T00:56:14.755Z,7.53
2019-04-25T00:58:53.143Z,7.08
2019-04-25T01:01:27.533Z,6.80
2019-04-25T01:03:57.157Z,7.60
2019-04-25T01:06:27.038Z,7.65
2019-04-25T01:08:56.663Z,7.80
2019-04-25T01:11:26.207Z,8.00
2019-04-25T01:13:55.840Z,7.08
2019-04-25T01:16:25.381Z,8.35
2019-04-25T01:18:55.578Z,8.18
2019-04-25T01:21:25.357Z,8.93
2019-04-25T01:23:55.708Z,8.85
2019-04-25T01:26:25.518Z,7.87
2019-04-25T01:28:55.980Z,8.10
2019-04-25T01:31:27.606Z,8.15
2019-04-25T01:33:57.300Z,8.33
2019-04-25T01:36:37.751Z,8.10
2019-04-25T01:39:18.784Z,9.18
2019-04-25T01:41:54.933Z,8.63
2019-04-25T01:44:28.290Z,8.25
2019-04-25T01:46:58.214Z,8.00
2019-04-25T01:49:28.075Z,7.78
2019-04-25T01:51:58.624Z,7.95
2019-04-25T01:54:30.303Z,7.50
2019-04-25T01:57:01.088Z,7.62
2019-04-25T01:59:30.639Z,7.80
2019-04-25T02:02:00.392Z,6.92
2019-04-25T02:04:29.935Z,7.55
2019-04-25T02:06:59.548Z,7.70
2019-04-25T02:09:29.177Z,7.87
2019-04-25T02:12:06.238Z,7.58
2019-04-25T02:14:35.869Z,7.58
2019-04-25T02:17:05.551Z,7.15
2019-04-25T02:19:36.187Z,6.60
2019-04-25T02:22:05.907Z,7.40
2019-04-25T02:24:35.468Z,7.62
2019-04-25T02:27:05.156Z,6.22
2019-04-25T02:29:34.703Z,7.35
2019-04-25T02:32:08.774Z,6.83
2019-04-25T02:34:35.862Z,6.08
2019-04-25T02:37:09.263Z,6.35
2019-04-25T02:39:37.768Z,6.28
2019-04-25T02:42:08.617Z,6.35
2019-04-25T02:44:40.246Z,5.83
2019-04-25T02:47:11.573Z,6.90
2019-04-25T02:49:44.631Z,6.28
2019-04-25T02:52:17.929Z,6.12
2019-04-25T02:54:46.893Z,5.55
2019-04-25T02:57:16.428Z,6.08
2019-04-25T02:59:45.995Z,6.47
2019-04-25T03:02:15.948Z,6.42
2019-04-25T03:04:45.516Z,6.47
2019-04-25T03:07:17.485Z,6.35
2019-04-25T03:09:46.318Z,6.73
2019-04-25T03:12:29.662Z,5.95
2019-04-25T03:14:47.399Z,6.03
2019-04-25T03:17:17.100Z,6.22
2019-04-25T03:19:54.359Z,5.75
2019-04-25T03:22:28.220Z,5.75
2019-04-25T03:24:58.706Z,6.25
2019-04-25T03:27:30.157Z,6.42
2019-04-25T03:30:01.970Z,6.30
2019-04-25T03:35:05.551Z,6.62
2019-04-25T03:37:35.265Z,6.37
2019-04-25T03:40:06.970Z,6.80
2019-04-25T03:42:37.555Z,6.83
2019-04-25T03:45:07.231Z,7.12
2019-04-25T03:47:36.880Z,6.83
2019-04-25T03:50:08.199Z,6.60
2019-04-25T03:52:39.034Z,6.72
2019-04-25T03:55:08.745Z,7.65
2019-04-25T03:57:38.417Z,7.83
2019-04-25T04:00:08.735Z,7.60
2019-04-25T04:02:38.608Z,8.05
2019-04-25T04:05:08.743Z,7.45
2019-04-25T04:07:39.235Z,8.23
2019-04-25T04:10:09.944Z,8.23
2019-04-25T04:12:39.703Z,8.15
2019-04-25T04:15:10.396Z,9.35
2019-04-25T04:17:41.753Z,8.68
2019-04-25T04:20:14.709Z,9.80
2019-04-25T04:23:03.832Z,8.48
2019-04-25T04:25:33.708Z,8.75
2019-04-25T04:28:03.809Z,9.18
2019-04-25T04:30:33.982Z,9.33
2019-04-25T04:33:03.690Z,9.98
2019-04-25T04:35:33.519Z,9.45
2019-04-25T04:38:04.262Z,9.15
2019-04-25T04:40:34.375Z,9.78
2019-04-25T04:43:05.234Z,9.50
2019-04-25T04:45:34.810Z,8.83
2019-04-25T04:48:04.492Z,8.70
2019-04-25T04:50:34.126Z,8.48
2019-04-25T04:53:03.933Z,8.78
2019-04-25T04:55:34.413Z,8.08
2019-04-25T04:58:04.310Z,7.10
2019-04-25T05:00:35.296Z,7.00
2019-04-25T05:03:06.547Z,7.62
2019-04-25T05:05:37.743Z,7.40
2019-04-25T05:08:08.925Z,6.90
2019-04-25T05:10:38.475Z,7.53
2019-04-25T05:13:08.021Z,7.72
2019-04-25T05:15:37.650Z,8.48
2019-04-25T05:18:07.188Z,7.75
2019-04-25T05:20:36.798Z,8.05
2019-04-25T05:23:08.873Z,8.13
2019-04-25T05:25:37.653Z,7.72
2019-04-25T05:28:07.214Z,8.45
2019-04-25T05:30:44.108Z,7.05
2019-04-25T05:33:17.171Z,8.30
2019-04-25T05:35:44.887Z,8.00
2019-04-25T05:38:15.188Z,8.25
2019-04-25T05:40:53.925Z,9.13
2019-04-25T05:43:26.462Z,8.60
2019-04-25T05:45:56.143Z,7.97
2019-04-25T05:48:26.325Z,8.73
2019-04-25T05:50:56.022Z,8.63
2019-04-25T05:53:26.301Z,9.53
2019-04-25T05:55:56.055Z,9.58
2019-04-25T05:58:26.116Z,9.85
2019-04-25T06:00:56.881Z,9.65
2019-04-25T06:03:27.535Z,10.20
2019-04-25T06:05:57.379Z,9.63
2019-04-25T06:08:28.667Z,9.83
2019-04-25T06:11:17.930Z,10.45
2019-04-25T06:13:49.334Z,9.85
2019-04-25T06:16:20.519Z,11.20
2019-04-25T06:18:55.339Z,10.78
2019-04-25T06:21:25.922Z,10.40
2019-04-25T06:24:13.405Z,11.22
2019-04-25T06:26:44.879Z,10.03
2019-04-25T06:29:14.436Z,10.65
2019-04-25T06:31:43.999Z,11.05
2019-04-25T06:34:14.076Z,10.28
2019-04-25T06:36:44.093Z,9.20
2019-04-25T06:39:14.178Z,9.40
2019-04-25T06:41:44.235Z,8.25
2019-04-25T06:44:29.115Z,8.90
2019-04-25T06:47:00.601Z,8.78
2019-04-25T06:49:37.753Z,8.13
2019-04-25T06:52:07.431Z,7.97
2019-04-25T06:54:37.082Z,8.43
2019-04-25T06:57:06.692Z,8.08
2019-04-25T06:59:39.559Z,9.35
2019-04-25T07:02:07.565Z,8.55
2019-04-25T07:04:37.116Z,9.13
2019-04-25T07:07:12.387Z,9.03
2019-04-25T07:09:38.111Z,9.28
2019-04-25T07:12:07.778Z,10.75
2019-04-25T07:14:37.327Z,9.15
2019-04-25T07:17:06.957Z,9.60
2019-04-25T07:19:36.491Z,9.78
2019-04-25T07:22:06.186Z,10.45
2019-04-25T07:24:35.895Z,9.75
2019-04-25T07:27:24.617Z,9.50
2019-04-25T07:30:08.415Z,9.83
2019-04-25T07:32:39.689Z,9.98
2019-04-25T07:35:09.374Z,9.83
2019-04-25T07:37:41.546Z,8.98
2019-04-25T07:40:10.628Z,9.13
2019-04-25T07:42:40.333Z,10.32
2019-04-25T07:45:10.725Z,9.10
2019-04-25T07:47:40.605Z,9.35
2019-04-25T07:50:10.411Z,9.70
2019-04-25T07:52:40.051Z,10.10
2019-04-25T07:55:09.727Z,8.48
2019-04-25T07:57:39.350Z,10.25
2019-04-25T08:00:13.179Z,10.38
2019-04-25T08:02:43.759Z,9.53
2019-04-25T08:05:17.740Z,9.38
2019-04-25T08:07:47.443Z,9.55
2019-04-25T08:10:18.275Z,9.40
2019-04-25T08:12:47.978Z,9.33
2019-04-25T08:15:36.268Z,10.25
2019-04-25T08:18:07.784Z,9.25
2019-04-25T08:20:37.478Z,8.90
2019-04-25T08:23:08.084Z,8.50
2019-04-25T08:25:39.418Z,8.78
2019-04-25T08:28:08.904Z,9.10
2019-04-25T08:30:38.524Z,9.43
2019-04-25T08:33:08.217Z,9.48
2019-04-25T08:35:38.160Z,8.30
2019-04-25T08:38:07.894Z,7.35
2019-04-25T08:40:38.934Z,7.37
2019-04-25T08:43:09.771Z,7.30
2019-04-25T08:45:40.083Z,7.10
2019-04-25T08:48:10.766Z,6.90
2019-04-25T08:50:42.877Z,7.42
2019-04-25T08:53:13.664Z,7.05
2019-04-25T08:55:49.148Z,7.45
2019-04-25T08:58:31.279Z,7.22
2019-04-25T09:01:07.307Z,7.47
2019-04-25T09:03:38.495Z,6.55
2019-04-25T09:06:09.183Z,6.47
2019-04-25T09:08:39.450Z,7.35
2019-04-25T09:11:09.327Z,6.75
2019-04-25T09:13:39.556Z,7.65
2019-04-25T09:16:09.311Z,7.40
2019-04-25T09:18:38.918Z,6.55
2019-04-25T09:21:08.566Z,6.60
2019-04-25T09:23:38.117Z,6.15
2019-04-25T09:26:08.872Z,5.65
2019-04-25T09:28:40.573Z,6.33
2019-04-25T09:31:10.709Z,6.55
2019-04-25T09:33:41.204Z,6.78
2019-04-25T09:36:11.150Z,6.78
2019-04-25T09:38:40.985Z,6.65
2019-04-25T09:41:10.639Z,6.62
2019-04-25T09:43:41.272Z,6.35
2019-04-25T09:46:13.269Z,7.58
2019-04-25T09:48:45.545Z,6.03
2019-04-25T09:51:36.229Z,6.12
2019-04-25T09:54:10.263Z,5.70
2019-04-25T09:56:41.557Z,5.08
2019-04-25T09:59:13.779Z,6.55
2019-04-25T10:01:45.335Z,6.40
2019-04-25T10:04:15.898Z,5.75
2019-04-25T10:06:46.042Z,5.65
2019-04-25T10:09:16.507Z,5.83
2019-04-25T10:11:46.517Z,5.75
2019-04-25T10:14:34.576Z,5.85
2019-04-25T10:17:04.733Z,5.60
2019-04-25T10:19:34.528Z,6.28
2019-04-25T10:22:04.580Z,5.40
2019-04-25T10:24:34.193Z,5.55
2019-04-25T10:27:04.569Z,5.90
2019-04-25T10:29:44.545Z,5.37
2019-04-25T10:32:06.503Z,6.20
2019-04-25T10:34:36.119Z,5.60
2019-04-25T10:37:06.489Z,5.25
2019-04-25T10:39:36.175Z,5.45
2019-04-25T10:42:05.879Z,4.87
2019-04-25T10:44:35.594Z,5.05
2019-04-25T10:47:05.276Z,5.20
2019-04-25T10:49:34.910Z,5.25
2019-04-25T10:52:06.339Z,5.37
2019-04-25T10:54:35.981Z,4.60
2019-04-25T10:57:06.587Z,5.05
2019-04-25T10:59:36.448Z,4.87
2019-04-25T11:02:07.503Z,5.00
2019-04-25T11:04:41.065Z,4.42
2019-04-25T11:07:11.172Z,5.05
2019-04-25T11:09:41.506Z,5.85
2019-04-25T11:12:14.051Z,4.43
2019-04-25T11:14:44.945Z,4.65
2019-04-25T11:17:15.456Z,4.47
2019-04-25T11:19:45.423Z,5.58
2019-04-25T11:22:15.612Z,5.55
2019-04-25T11:24:45.830Z,5.33
2019-04-25T11:27:15.708Z,5.30
2019-04-25T11:29:47.144Z,4.72
2019-04-25T11:32:19.970Z,6.72
2019-04-25T11:34:50.690Z,5.50
2019-04-25T11:37:23.914Z,5.20
2019-04-25T11:40:04.507Z,4.92
2019-04-25T11:42:34.253Z,4.75
2019-04-25T11:45:06.353Z,5.70
2019-04-25T11:50:07.569Z,5.10
2019-04-25T11:52:37.484Z,5.83
2019-04-25T11:55:07.956Z,5.25
2019-04-25T11:57:38.204Z,5.25
2019-04-25T12:00:21.363Z,5.53
2019-04-25T12:02:39.811Z,5.47
2019-04-25T12:05:09.631Z,5.30
2019-04-25T12:07:39.247Z,4.92
2019-04-25T12:10:10.312Z,5.92
2019-04-25T12:12:40.067Z,4.73
2019-04-25T12:15:09.755Z,5.22
2019-04-25T12:17:39.508Z,5.35
2019-04-25T12:20:09.412Z,5.67
2019-04-25T12:22:38.951Z,5.55
2019-04-25T12:25:08.865Z,5.37
2019-04-25T12:27:38.385Z,6.10
2019-04-25T12:30:08.151Z,5.85
2019-04-25T12:32:37.702Z,5.42
2019-04-25T12:35:07.687Z,5.15
2019-04-25T12:37:37.203Z,5.37
2019-04-25T12:40:08.844Z,5.45
2019-04-25T12:42:38.452Z,4.85
2019-04-25T12:45:21.830Z,5.30
2019-04-25T12:47:58.009Z,5.20
2019-04-25T12:50:26.935Z,5.20
2019-04-25T12:52:56.582Z,5.83
2019-04-25T12:55:26.361Z,5.33
2019-04-25T12:57:56.567Z,6.00
2019-04-25T13:00:27.630Z,5.12
2019-04-25T13:02:57.232Z,5.60
2019-04-25T13:05:26.903Z,5.70
2019-04-25T13:07:58.604Z,6.35
2019-04-25T13:10:27.916Z,5.85
2019-04-25T13:12:57.562Z,5.65
2019-04-25T13:15:28.284Z,6.15
2019-04-25T13:17:58.006Z,7.05
2019-04-25T13:20:27.615Z,5.83
2019-04-25T13:22:57.318Z,6.33
2019-04-25T13:25:36.295Z,6.53
2019-04-25T13:28:10.155Z,5.15
2019-04-25T13:31:05.477Z,6.25
2019-04-25T13:33:38.523Z,5.65
2019-04-25T13:36:09.797Z,5.65
2019-04-25T13:38:39.556Z,6.17
2019-04-25T13:41:09.162Z,5.95
2019-04-25T13:43:38.954Z,6.20
2019-04-25T13:46:08.543Z,6.45
2019-04-25T13:48:38.253Z,6.67
2019-04-25T13:51:07.821Z,6.10
2019-04-25T13:53:37.401Z,6.17
2019-04-25T13:56:09.253Z,5.72
2019-04-25T13:58:39.121Z,6.37
2019-04-25T14:01:13.263Z,5.78
2019-04-25T14:03:41.727Z,6.25
2019-04-25T14:06:11.419Z,6.80
2019-04-25T14:08:40.975Z,6.20
2019-04-25T14:11:10.611Z,6.55
2019-04-25T14:13:41.382Z,7.10
2019-04-25T14:16:13.762Z,6.70
2019-04-25T14:18:57.308Z,7.22
2019-04-25T14:21:27.326Z,7.67
2019-04-25T14:23:57.008Z,6.75
2019-04-25T14:26:27.103Z,6.67
2019-04-25T14:28:56.699Z,7.03
2019-04-25T14:31:41.039Z,7.60
2019-04-25T14:33:57.637Z,6.50
2019-04-25T14:36:28.577Z,7.30
2019-04-25T14:38:58.405Z,7.80
2019-04-25T14:41:28.088Z,8.55
2019-04-25T14:43:58.794Z,7.15
2019-04-25T14:46:28.497Z,7.50
2019-04-25T14:48:58.045Z,7.65
2019-04-25T14:51:28.158Z,7.33
2019-04-25T14:54:00.433Z,8.07
2019-04-25T14:56:46.585Z,7.65
2019-04-25T14:59:16.158Z,8.20
2019-04-25T15:01:45.818Z,8.03
2019-04-25T15:04:15.459Z,8.48
2019-04-25T15:06:45.037Z,7.90
2019-04-25T15:09:14.593Z,8.05
2019-04-25T15:11:44.219Z,8.48
2019-04-25T15:14:13.849Z,8.28
2019-04-25T15:16:43.475Z,8.13
2019-04-25T15:19:13.183Z,6.67
2019-04-25T15:21:42.736Z,6.87
2019-04-25T15:24:12.297Z,5.92
2019-04-25T15:26:41.973Z,5.65
2019-04-25T15:29:11.625Z,5.90
2019-04-25T15:31:55.442Z,6.37
2019-04-25T15:34:15.661Z,6.60
2019-04-25T15:36:52.617Z,7.08
2019-04-25T15:39:24.891Z,6.95
2019-04-25T15:41:56.462Z,8.23
2019-04-25T15:44:27.668Z,7.33
2019-04-25T15:46:58.917Z,7.30
2019-04-25T15:49:28.780Z,6.60
2019-04-25T15:51:59.966Z,5.78
2019-04-25T15:54:29.697Z,6.43
2019-04-25T15:56:59.339Z,6.22
2019-04-25T15:59:28.957Z,5.70
2019-04-25T16:02:07.623Z,4.75
2019-04-25T16:04:30.390Z,5.75
2019-04-25T16:07:00.161Z,4.65
2019-04-25T16:09:29.855Z,5.10
2019-04-25T16:11:59.571Z,5.60
2019-04-25T16:14:29.373Z,4.58
2019-04-25T16:17:00.654Z,4.72
2019-04-25T16:19:30.345Z,4.15
2019-04-25T16:22:00.071Z,3.30
2019-04-25T16:24:30.298Z,3.90
2019-04-25T16:26:59.904Z,3.80
2019-04-25T16:29:29.525Z,3.92
2019-04-25T16:31:59.818Z,4.12
2019-04-25T16:34:29.587Z,4.60
2019-04-25T16:36:59.428Z,4.40
2019-04-25T16:39:31.003Z,3.95
2019-04-25T16:42:00.576Z,3.92
2019-04-25T16:44:30.195Z,3.77
2019-04-25T16:46:59.962Z,3.60
2019-04-25T16:49:29.996Z,3.30
2019-04-25T16:51:59.614Z,3.40
2019-04-25T16:54:30.303Z,3.17
2019-04-25T16:57:00.047Z,3.08
2019-04-25T16:59:29.656Z,3.00
2019-04-25T17:01:59.484Z,3.35
2019-04-25T17:04:29.908Z,2.90
2019-04-25T17:06:59.902Z,2.80
2019-04-25T17:09:30.448Z,2.60
2019-04-25T17:12:00.311Z,2.35
2019-04-25T17:14:37.497Z,2.40
2019-04-25T17:17:27.215Z,2.27
2019-04-25T17:20:14.715Z,2.55
2019-04-25T17:22:45.979Z,2.50
2019-04-25T17:25:15.797Z,2.17
2019-04-25T17:27:45.486Z,2.50
2019-04-25T17:30:15.648Z,2.98
2019-04-25T17:32:58.779Z,2.30
2019-04-25T17:35:44.937Z,2.55
2019-04-25T17:38:19.692Z,2.30
2019-04-25T17:40:49.289Z,2.70
2019-04-25T17:43:18.977Z,2.85
2019-04-25T17:45:48.541Z,2.37
2019-04-25T17:48:18.066Z,3.02
2019-04-25T17:50:47.610Z,2.95
2019-04-25T17:53:17.327Z,2.85
2019-04-25T17:55:46.859Z,2.83
2019-04-25T17:58:16.399Z,3.02
2019-04-25T18:00:47.277Z,3.20
2019-04-25T18:03:17.649Z,3.77
2019-04-25T18:05:47.211Z,3.40
2019-04-25T18:08:16.846Z,3.98
2019-04-25T18:10:46.474Z,4.28
2019-04-25T18:13:16.113Z,3.10
2019-04-25T18:15:56.261Z,2.60
2019-04-25T18:18:43.436Z,2.75
2019-04-25T18:21:13.218Z,2.95
2019-04-25T18:23:59.500Z,3.12
2019-04-25T18:26:30.683Z,2.92
2019-04-25T18:29:03.487Z,2.95
2019-04-25T18:31:33.103Z,2.87
2019-04-25T18:34:07.983Z,2.55
2019-04-25T18:36:39.244Z,2.55
2019-04-25T18:39:27.290Z,2.67
2019-04-25T18:42:04.469Z,3.27
2019-04-25T18:44:35.627Z,2.95
2019-04-25T18:47:06.350Z,2.80
2019-04-25T18:49:36.374Z,2.83
2019-04-25T18:52:08.832Z,2.63
2019-04-25T18:54:41.057Z,2.70
2019-04-25T18:57:27.364Z,3.10
2019-04-25T19:00:16.481Z,2.67
2019-04-25T19:02:48.061Z,2.58
2019-04-25T19:05:28.069Z,3.30
2019-04-25T19:07:57.613Z,3.25
2019-04-25T19:10:27.616Z,4.03
2019-04-25T19:12:57.323Z,4.55
2019-04-25T19:15:26.870Z,4.22
2019-04-25T19:17:56.492Z,4.90
2019-04-25T19:20:26.109Z,3.87
2019-04-25T19:22:55.733Z,3.10
2019-04-25T19:25:25.415Z,2.90
2019-04-25T19:27:54.981Z,2.47
2019-04-25T19:33:35.939Z,3.25
2019-04-25T19:36:02.858Z,3.30
2019-04-25T19:38:32.415Z,3.47
2019-04-25T19:41:03.675Z,3.47
2019-04-25T19:43:46.991Z,3.37
2019-04-25T19:46:16.551Z,3.22
2019-04-25T19:48:46.933Z,4.20
2019-04-25T19:51:17.726Z,4.45
2019-04-25T19:53:47.426Z,4.05
2019-04-25T19:56:17.058Z,4.75
2019-04-25T19:58:46.649Z,4.97
2019-04-25T20:01:16.325Z,5.17
2019-04-25T20:03:56.768Z,5.10
2019-04-25T20:06:40.999Z,5.70
2019-04-25T20:09:28.455Z,5.35
2019-04-25T20:11:58.379Z,5.20
2019-04-25T20:14:27.969Z,5.42
2019-04-25T20:16:57.550Z,7.08
2019-04-25T20:19:27.107Z,5.85
2019-04-25T20:21:56.755Z,6.50
2019-04-25T20:24:26.330Z,6.55
2019-04-25T20:26:55.886Z,5.95
2019-04-25T20:29:25.574Z,6.90
2019-04-25T20:31:55.248Z,6.85
2019-04-25T20:34:24.793Z,6.40
2019-04-25T20:36:54.501Z,6.30
2019-04-25T20:39:24.157Z,6.28
2019-04-25T20:41:53.951Z,6.47
2019-04-25T20:44:23.589Z,7.15
2019-04-25T20:46:53.389Z,7.50
2019-04-25T20:49:22.918Z,7.20
2019-04-25T20:51:52.622Z,6.85
2019-04-25T20:54:22.242Z,6.85
2019-04-25T20:56:51.863Z,7.37
2019-04-25T20:59:21.490Z,7.62
2019-04-25T21:01:51.472Z,7.70
2019-04-25T21:04:39.737Z,7.53
2019-04-25T21:07:10.197Z,7.33
2019-04-25T21:09:40.276Z,7.35
2019-04-25T21:12:09.903Z,7.72
2019-04-25T21:14:58.265Z,7.85
2019-04-25T21:17:32.355Z,8.23
2019-04-25T21:20:03.631Z,7.40
2019-04-25T21:22:33.248Z,8.00
2019-04-25T21:25:05.454Z,7.58
2019-04-25T21:27:34.236Z,7.75
2019-04-25T21:30:05.771Z,8.60
2019-04-25T21:32:53.020Z,8.85
2019-04-25T21:35:23.512Z,8.83
2019-04-25T21:37:53.535Z,8.23
2019-04-25T21:40:24.804Z,8.15
2019-04-25T21:42:58.752Z,8.80
2019-04-25T21:45:28.506Z,8.90
2019-04-25T21:47:58.732Z,8.60
2019-04-25T21:50:28.519Z,8.43
2019-04-25T21:52:59.145Z,7.87
2019-04-25T21:55:29.023Z,8.68
2019-04-25T21:57:59.044Z,8.78
2019-04-25T22:00:46.701Z,8.78
2019-04-25T22:03:19.883Z,8.00
2019-04-25T22:05:49.881Z,8.43
2019-04-25T22:08:19.568Z,8.68
2019-04-25T22:10:49.198Z,8.53
2019-04-25T22:13:18.754Z,8.93
2019-04-25T22:15:48.724Z,8.03
2019-04-25T22:18:18.526Z,7.87
2019-04-25T22:20:48.119Z,8.48
2019-04-25T22:23:18.042Z,8.35
2019-04-25T22:25:47.987Z,7.83
2019-04-25T22:28:18.909Z,8.23
2019-04-25T22:30:50.778Z,8.73
2019-04-25T22:33:22.031Z,8.38
2019-04-25T22:35:53.305Z,8.50
2019-04-25T22:38:23.150Z,9.15
2019-04-25T22:40:53.925Z,7.97
2019-04-25T22:43:23.827Z,7.58
2019-04-25T22:45:53.699Z,8.05
2019-04-25T22:48:28.010Z,7.97
2019-04-25T22:50:57.642Z,8.53
2019-04-25T22:53:27.180Z,8.48
2019-04-25T22:55:57.108Z,8.05
2019-04-25T22:58:26.706Z,8.25
2019-04-25T23:00:56.396Z,9.05
2019-04-25T23:03:39.653Z,8.65
2019-04-25T23:06:09.654Z,8.53
2019-04-25T23:08:39.280Z,8.28
2019-04-25T23:11:08.917Z,7.70
2019-04-25T23:13:38.460Z,7.92
2019-04-25T23:16:08.986Z,8.80
2019-04-25T23:18:38.545Z,9.45
2019-04-25T23:21:08.545Z,8.98
2019-04-25T23:23:38.272Z,10.00
2019-04-25T23:26:12.376Z,9.43
2019-04-25T23:28:43.946Z,10.20
2019-04-25T23:31:17.876Z,10.30
2019-04-25T23:33:47.564Z,9.93
2019-04-25T23:36:17.624Z,9.83
2019-04-25T23:38:47.197Z,9.60
2019-04-25T23:41:17.190Z,8.98
2019-04-25T23:43:46.821Z,9.73
2019-04-25T23:46:16.376Z,9.45
2019-04-25T23:48:47.071Z,8.98
2019-04-25T23:51:17.451Z,10.18
2019-04-25T23:53:47.473Z,9.18
2019-04-25T23:56:17.340Z,9.70
2019-04-25T23:58:48.306Z,9.43
